sensor_id;sensor_type;location;lat;lon;timestamp;pressure;altitude;pressure_sealevel;temperature;humidity
41800;BME280;27468;47.460;19.034;2023-02-22T00:02:10;100357.44;;;7.95;76.59
41800;BME280;27468;47.460;19.034;2023-02-22T00:04:37;100336.50;;;7.87;76.71
41800;BME280;27468;47.460;19.034;2023-02-22T00:07:06;100326.97;;;7.79;76.58
41800;BME280;27468;47.460;19.034;2023-02-22T00:09:31;100402.72;;;8.14;76.89
41800;BME280;27468;47.460;19.034;2023-02-22T00:11:56;100383.69;;;7.95;76.92
41800;BME280;27468;47.460;19.034;2023-02-22T00:14:23;100337.53;;;7.68;77.20
41800;BME280;27468;47.460;19.034;2023-02-22T00:16:51;100390.75;;;7.87;77.13
41800;BME280;27468;47.460;19.034;2023-02-22T00:19:17;100340.25;;;7.59;77.12
41800;BME280;27468;47.460;19.034;2023-02-22T00:21:43;100393.41;;;7.84;76.98
41800;BME280;27468;47.460;19.034;2023-02-22T00:24:09;100381.28;;;7.66;77.24
41800;BME280;27468;47.460;19.034;2023-02-22T00:26:52;100389.09;;;7.74;77.08
41800;BME280;27468;47.460;19.034;2023-02-22T00:29:20;100393.53;;;7.66;77.02
41800;BME280;27468;47.460;19.034;2023-02-22T00:31:45;100419.63;;;7.85;77.09
41800;BME280;27468;47.460;19.034;2023-02-22T00:34:13;100410.94;;;7.77;77.12
41800;BME280;27468;47.460;19.034;2023-02-22T00:36:44;100403.09;;;7.76;77.49
41800;BME280;27468;47.460;19.034;2023-02-22T00:39:09;100404.00;;;7.70;77.35
41800;BME280;27468;47.460;19.034;2023-02-22T00:41:35;100426.69;;;7.80;77.47
41800;BME280;27468;47.460;19.034;2023-02-22T00:44:00;100412.66;;;7.81;77.49
41800;BME280;27468;47.460;19.034;2023-02-22T00:46:26;100396.19;;;7.61;77.53
41800;BME280;27468;47.460;19.034;2023-02-22T00:48:51;100398.75;;;7.70;77.71
41800;BME280;27468;47.460;19.034;2023-02-22T00:51:17;100365.72;;;7.48;77.40
41800;BME280;27468;47.460;19.034;2023-02-22T00:53:42;100388.31;;;7.62;77.51
41800;BME280;27468;47.460;19.034;2023-02-22T00:56:08;100350.88;;;7.44;77.38
41800;BME280;27468;47.460;19.034;2023-02-22T00:58:33;100381.34;;;7.60;77.58
41800;BME280;27468;47.460;19.034;2023-02-22T01:00:58;100390.88;;;7.72;77.90
41800;BME280;27468;47.460;19.034;2023-02-22T01:03:24;100405.69;;;7.79;77.87
41800;BME280;27468;47.460;19.034;2023-02-22T01:05:49;100344.78;;;7.43;77.83
41800;BME280;27468;47.460;19.034;2023-02-22T01:08:16;100361.28;;;7.54;77.72
41800;BME280;27468;47.460;19.034;2023-02-22T01:10:42;100402.09;;;7.89;77.68
41800;BME280;27468;47.460;19.034;2023-02-22T01:13:08;100304.63;;;7.34;77.39
41800;BME280;27468;47.460;19.034;2023-02-22T01:15:38;100365.50;;;7.72;77.45
41800;BME280;27468;47.460;19.034;2023-02-22T01:18:04;100355.88;;;7.71;77.07
41800;BME280;27468;47.460;19.034;2023-02-22T01:20:30;100399.41;;;7.98;77.25
41800;BME280;27468;47.460;19.034;2023-02-22T01:22:58;100336.72;;;7.61;77.06
41800;BME280;27468;47.460;19.034;2023-02-22T01:25:26;100403.72;;;8.07;76.74
41800;BME280;27468;47.460;19.034;2023-02-22T01:27:53;100320.09;;;7.64;76.78
41800;BME280;27468;47.460;19.034;2023-02-22T01:30:24;100384.44;;;8.08;76.68
41800;BME280;27468;47.460;19.034;2023-02-22T01:32:50;100397.41;;;8.21;76.02
41800;BME280;27468;47.460;19.034;2023-02-22T01:35:20;100274.66;;;7.57;75.75
41800;BME280;27468;47.460;19.034;2023-02-22T01:37:45;100320.00;;;7.75;75.79
41800;BME280;27468;47.460;19.034;2023-02-22T01:40:17;100385.19;;;8.19;75.66
41800;BME280;27468;47.460;19.034;2023-02-22T01:42:46;100344.38;;;7.87;75.77
41800;BME280;27468;47.460;19.034;2023-02-22T01:48:10;100322.66;;;7.72;75.62
41800;BME280;27468;47.460;19.034;2023-02-22T01:50:41;100356.50;;;8.01;75.38
41800;BME280;27468;47.460;19.034;2023-02-22T01:53:10;100350.44;;;7.92;75.52
41800;BME280;27468;47.460;19.034;2023-02-22T01:55:38;100357.47;;;7.90;75.56
41800;BME280;27468;47.460;19.034;2023-02-22T01:58:04;100359.19;;;7.94;75.69
41800;BME280;27468;47.460;19.034;2023-02-22T02:00:30;100336.59;;;7.75;75.63
41800;BME280;27468;47.460;19.034;2023-02-22T02:03:07;100391.50;;;8.01;76.02
41800;BME280;27468;47.460;19.034;2023-02-22T02:05:36;100341.88;;;7.72;75.94
41800;BME280;27468;47.460;19.034;2023-02-22T02:08:09;100366.25;;;7.86;76.13
41800;BME280;27468;47.460;19.034;2023-02-22T02:10:39;100368.03;;;7.84;76.54
41800;BME280;27468;47.460;19.034;2023-02-22T02:13:06;100331.44;;;7.66;76.37
41800;BME280;27468;47.460;19.034;2023-02-22T02:15:32;100343.66;;;7.69;76.55
41800;BME280;27468;47.460;19.034;2023-02-22T02:18:05;100290.53;;;7.45;76.43
41800;BME280;27468;47.460;19.034;2023-02-22T02:31:52;100365.22;;;8.06;75.78
41800;BME280;27468;47.460;19.034;2023-02-22T02:37:12;100374.63;;;8.23;75.00
41800;BME280;27468;47.460;19.034;2023-02-22T02:40:05;100346.75;;;8.09;75.18
41800;BME280;27468;47.460;19.034;2023-02-22T02:42:41;100379.84;;;8.28;75.12
41800;BME280;27468;47.460;19.034;2023-02-22T02:45:16;100357.19;;;8.16;75.35
41800;BME280;27468;47.460;19.034;2023-02-22T02:47:52;100368.53;;;8.21;74.85
41800;BME280;27468;47.460;19.034;2023-02-22T02:50:32;100385.03;;;8.37;75.02
41800;BME280;27468;47.460;19.034;2023-02-22T02:53:04;100322.34;;;8.02;75.01
41800;BME280;27468;47.460;19.034;2023-02-22T02:55:30;100378.97;;;8.27;75.00
41800;BME280;27468;47.460;19.034;2023-02-22T02:57:56;100312.88;;;7.86;74.95
41800;BME280;27468;47.460;19.034;2023-02-22T03:00:26;100378.97;;;8.26;75.23
41800;BME280;27468;47.460;19.034;2023-02-22T03:18:55;100394.72;;;8.27;75.50
41800;BME280;27468;47.460;19.034;2023-02-22T03:24:20;100393.06;;;8.19;75.75
41800;BME280;27468;47.460;19.034;2023-02-22T03:27:01;100394.78;;;8.23;75.90
41800;BME280;27468;47.460;19.034;2023-02-22T03:29:30;100306.00;;;7.76;75.67
41800;BME280;27468;47.460;19.034;2023-02-22T03:32:03;100396.44;;;8.32;75.48
41800;BME280;27468;47.460;19.034;2023-02-22T03:34:40;100393.03;;;8.22;75.67
41800;BME280;27468;47.460;19.034;2023-02-22T03:37:14;100355.50;;;8.09;75.55
41800;BME280;27468;47.460;19.034;2023-02-22T03:39:42;100340.69;;;8.08;75.55
41800;BME280;27468;47.460;19.034;2023-02-22T03:42:14;100315.47;;;7.92;75.29
41800;BME280;27468;47.460;19.034;2023-02-22T03:44:42;100347.63;;;8.11;75.33
41800;BME280;27468;47.460;19.034;2023-02-22T03:47:13;100380.69;;;8.30;75.25
41800;BME280;27468;47.460;19.034;2023-02-22T03:49:54;100378.97;;;8.26;75.65
41800;BME280;27468;47.460;19.034;2023-02-22T03:52:22;100399.03;;;8.39;75.38
41800;BME280;27468;47.460;19.034;2023-02-22T03:54:49;100319.81;;;7.94;75.33
41800;BME280;27468;47.460;19.034;2023-02-22T03:57:30;100355.56;;;8.06;75.79
41800;BME280;27468;47.460;19.034;2023-02-22T03:59:57;100327.78;;;7.84;75.86
41800;BME280;27468;47.460;19.034;2023-02-22T04:02:22;100353.00;;;8.00;76.25
41800;BME280;27468;47.460;19.034;2023-02-22T04:04:48;100396.59;;;8.16;76.41
41800;BME280;27468;47.460;19.034;2023-02-22T04:07:13;100392.22;;;8.15;76.54
41800;BME280;27468;47.460;19.034;2023-02-22T04:09:39;100381.81;;;8.08;76.61
41800;BME280;27468;47.460;19.034;2023-02-22T04:12:04;100404.41;;;8.21;76.98
41800;BME280;27468;47.460;19.034;2023-02-22T04:14:30;100369.59;;;8.04;77.06
41800;BME280;27468;47.460;19.034;2023-02-22T04:16:55;100333.94;;;7.80;77.25
41800;BME280;27468;47.460;19.034;2023-02-22T04:19:20;100394.84;;;8.14;77.18
41800;BME280;27468;47.460;19.034;2023-02-22T04:21:46;100380.00;;;8.10;77.12
41800;BME280;27468;47.460;19.034;2023-02-22T04:24:13;100395.72;;;8.16;77.71
41800;BME280;27468;47.460;19.034;2023-02-22T04:26:39;100306.16;;;7.57;77.20
41800;BME280;27468;47.460;19.034;2023-02-22T04:29:05;100386.22;;;8.04;77.33
41800;BME280;27468;47.460;19.034;2023-02-22T04:31:31;100399.25;;;8.10;77.44
41800;BME280;27468;47.460;19.034;2023-02-22T04:33:58;100334.91;;;7.70;77.58
41800;BME280;27468;47.460;19.034;2023-02-22T04:36:24;100391.53;;;7.98;78.52
41800;BME280;27468;47.460;19.034;2023-02-22T04:38:49;100365.41;;;7.83;78.13
41800;BME280;27468;47.460;19.034;2023-02-22T04:41:16;100403.81;;;7.94;78.91
41800;BME280;27468;47.460;19.034;2023-02-22T04:43:43;100396.97;;;7.77;78.81
41800;BME280;27468;47.460;19.034;2023-02-22T04:46:08;100400.41;;;7.83;79.03
41800;BME280;27468;47.460;19.034;2023-02-22T04:48:33;100369.06;;;7.65;79.54
41800;BME280;27468;47.460;19.034;2023-02-22T04:50:59;100322.91;;;7.43;79.97
41800;BME280;27468;47.460;19.034;2023-02-22T04:53:24;100352.41;;;7.68;80.51
41800;BME280;27468;47.460;19.034;2023-02-22T04:55:50;100381.94;;;7.95;80.96
41800;BME280;27468;47.460;19.034;2023-02-22T04:58:16;100405.44;;;8.08;80.92
41800;BME280;27468;47.460;19.034;2023-02-22T05:00:41;100409.63;;;8.24;80.82
41800;BME280;27468;47.460;19.034;2023-02-22T05:03:07;100357.41;;;7.98;80.54
41800;BME280;27468;47.460;19.034;2023-02-22T05:05:33;100369.44;;;8.16;80.29
41800;BME280;27468;47.460;19.034;2023-02-22T05:07:58;100345.06;;;8.06;79.84
41800;BME280;27468;47.460;19.034;2023-02-22T05:10:23;100412.00;;;8.54;79.59
41800;BME280;27468;47.460;19.034;2023-02-22T05:12:49;100345.69;;;8.26;79.18
41800;BME280;27468;47.460;19.034;2023-02-22T05:15:17;100353.47;;;8.40;78.95
41800;BME280;27468;47.460;19.034;2023-02-22T05:17:44;100338.66;;;8.35;78.52
41800;BME280;27468;47.460;19.034;2023-02-22T05:20:23;100372.50;;;8.60;78.29
41800;BME280;27468;47.460;19.034;2023-02-22T05:22:49;100381.22;;;8.66;78.17
41800;BME280;27468;47.460;19.034;2023-02-22T05:25:16;100339.41;;;8.46;78.04
41800;BME280;27468;47.460;19.034;2023-02-22T05:27:41;100375.91;;;8.67;77.81
41800;BME280;27468;47.460;19.034;2023-02-22T05:30:09;100360.31;;;8.55;77.59
41800;BME280;27468;47.460;19.034;2023-02-22T05:32:34;100385.38;;;8.80;77.56
41800;BME280;27468;47.460;19.034;2023-02-22T05:35:00;100370.63;;;8.69;76.94
41800;BME280;27468;47.460;19.034;2023-02-22T05:37:25;100413.22;;;8.97;77.06
41800;BME280;27468;47.460;19.034;2023-02-22T05:39:51;100393.22;;;8.83;76.87
41800;BME280;27468;47.460;19.034;2023-02-22T05:42:16;100401.97;;;8.84;77.17
41800;BME280;27468;47.460;19.034;2023-02-22T05:44:43;100424.66;;;8.94;76.75
41800;BME280;27468;47.460;19.034;2023-02-22T05:47:09;100407.31;;;8.78;76.91
41800;BME280;27468;47.460;19.034;2023-02-22T05:49:34;100394.22;;;8.75;77.01
41800;BME280;27468;47.460;19.034;2023-02-22T05:51:59;100342.03;;;8.46;76.96
41800;BME280;27468;47.460;19.034;2023-02-22T05:54:25;100405.53;;;8.81;76.86
41800;BME280;27468;47.460;19.034;2023-02-22T05:56:50;100357.72;;;8.50;77.00
41800;BME280;27468;47.460;19.034;2023-02-22T05:59:16;100429.16;;;8.83;77.48
41800;BME280;27468;47.460;19.034;2023-02-22T06:01:41;100385.63;;;8.62;77.67
41800;BME280;27468;47.460;19.034;2023-02-22T06:04:07;100427.38;;;8.85;77.56
41800;BME280;27468;47.460;19.034;2023-02-22T06:06:33;100463.03;;;9.09;77.26
41800;BME280;27468;47.460;19.034;2023-02-22T06:08:58;100396.91;;;8.70;77.03
41800;BME280;27468;47.460;19.034;2023-02-22T06:11:24;100378.63;;;8.63;77.11
41800;BME280;27468;47.460;19.034;2023-02-22T06:13:51;100414.13;;;8.94;76.91
41800;BME280;27468;47.460;19.034;2023-02-22T06:16:18;100425.47;;;8.98;77.04
41800;BME280;27468;47.460;19.034;2023-02-22T06:18:45;100436.72;;;9.10;76.65
41800;BME280;27468;47.460;19.034;2023-02-22T06:21:10;100424.38;;;9.15;76.46
41800;BME280;27468;47.460;19.034;2023-02-22T06:23:36;100399.88;;;9.12;76.38
41800;BME280;27468;47.460;19.034;2023-02-22T06:26:01;100405.94;;;9.17;75.94
41800;BME280;27468;47.460;19.034;2023-02-22T06:28:26;100462.31;;;9.60;75.85
41800;BME280;27468;47.460;19.034;2023-02-22T06:30:52;100447.34;;;9.64;75.74
41800;BME280;27468;47.460;19.034;2023-02-22T06:33:17;100466.44;;;9.80;75.54
41800;BME280;27468;47.460;19.034;2023-02-22T06:35:43;100470.72;;;9.84;74.31
41800;BME280;27468;47.460;19.034;2023-02-22T06:38:09;100469.56;;;10.02;73.65
41800;BME280;27468;47.460;19.034;2023-02-22T06:40:35;100458.97;;;10.06;73.35
41800;BME280;27468;47.460;19.034;2023-02-22T06:43:01;100460.69;;;10.09;72.45
41800;BME280;27468;47.460;19.034;2023-02-22T06:45:27;100482.44;;;10.23;72.29
41800;BME280;27468;47.460;19.034;2023-02-22T06:47:52;100466.66;;;10.20;71.90
41800;BME280;27468;47.460;19.034;2023-02-22T06:52:45;100432.41;;;10.20;71.04
41800;BME280;27468;47.460;19.034;2023-02-22T06:55:16;100438.41;;;10.30;70.83
41800;BME280;27468;47.460;19.034;2023-02-22T06:57:41;100502.59;;;10.75;70.62
41800;BME280;27468;47.460;19.034;2023-02-22T07:00:07;100469.22;;;10.72;69.64
41800;BME280;27468;47.460;19.034;2023-02-22T07:02:33;100435.25;;;10.57;70.06
41800;BME280;27468;47.460;19.034;2023-02-22T07:04:59;100436.81;;;10.67;69.71
41800;BME280;27468;47.460;19.034;2023-02-22T07:07:24;100473.25;;;10.91;69.40
41800;BME280;27468;47.460;19.034;2023-02-22T07:09:49;100472.09;;;11.05;68.98
41800;BME280;27468;47.460;19.034;2023-02-22T07:12:15;100444.09;;;10.98;68.53
41800;BME280;27468;47.460;19.034;2023-02-22T07:14:41;100451.78;;;11.08;68.06
41800;BME280;27468;47.460;19.034;2023-02-22T07:17:06;100468.34;;;11.15;68.08
41800;BME280;27468;47.460;19.034;2023-02-22T07:19:32;100420.69;;;10.82;68.04
41800;BME280;27468;47.460;19.034;2023-02-22T07:21:57;100437.28;;;10.87;68.73
41800;BME280;27468;47.460;19.034;2023-02-22T07:24:24;100409.59;;;10.65;68.97
41800;BME280;27468;47.460;19.034;2023-02-22T07:26:50;100433.22;;;10.71;69.04
41800;BME280;27468;47.460;19.034;2023-02-22T07:29:16;100482.97;;;10.89;69.18
41800;BME280;27468;47.460;19.034;2023-02-22T07:31:41;100458.53;;;10.80;69.21
41800;BME280;27468;47.460;19.034;2023-02-22T07:34:07;100479.59;;;10.81;69.08
41800;BME280;27468;47.460;19.034;2023-02-22T07:36:32;100484.03;;;10.79;69.52
41800;BME280;27468;47.460;19.034;2023-02-22T07:38:57;100443.94;;;10.62;69.66
41800;BME280;27468;47.460;19.034;2023-02-22T07:41:24;100465.56;;;10.79;69.67
41800;BME280;27468;47.460;19.034;2023-02-22T07:43:49;100467.34;;;10.79;69.57
41800;BME280;27468;47.460;19.034;2023-02-22T07:46:14;100468.34;;;10.72;69.28
41800;BME280;27468;47.460;19.034;2023-02-22T07:48:40;100471.88;;;10.72;69.39
41800;BME280;27468;47.460;19.034;2023-02-22T07:51:06;100465.84;;;10.66;69.18
41800;BME280;27468;47.460;19.034;2023-02-22T07:53:31;100491.22;;;10.71;69.09
41800;BME280;27468;47.460;19.034;2023-02-22T07:56:03;100477.97;;;10.76;69.08
41800;BME280;27468;47.460;19.034;2023-02-22T07:58:30;100482.34;;;10.75;69.41
41800;BME280;27468;47.460;19.034;2023-02-22T08:00:56;100490.16;;;10.81;69.58
41800;BME280;27468;47.460;19.034;2023-02-22T08:03:23;100500.47;;;10.94;69.52
41800;BME280;27468;47.460;19.034;2023-02-22T08:05:52;100495.84;;;11.03;69.35
41800;BME280;27468;47.460;19.034;2023-02-22T08:08:18;100443.81;;;10.68;69.16
41800;BME280;27468;47.460;19.034;2023-02-22T08:10:44;100502.78;;;11.09;69.16
41800;BME280;27468;47.460;19.034;2023-02-22T08:13:10;100422.00;;;10.60;68.80
41800;BME280;27468;47.460;19.034;2023-02-22T08:15:38;100474.84;;;10.99;68.89
41800;BME280;27468;47.460;19.034;2023-02-22T08:18:06;100486.09;;;11.08;68.79
41800;BME280;27468;47.460;19.034;2023-02-22T08:20:35;100467.78;;;11.01;68.29
41800;BME280;27468;47.460;19.034;2023-02-22T08:23:01;100462.63;;;10.96;68.22
41800;BME280;27468;47.460;19.034;2023-02-22T08:25:28;100455.25;;;11.10;68.12
41800;BME280;27468;47.460;19.034;2023-02-22T08:28:13;100469.13;;;11.20;67.90
41800;BME280;27468;47.460;19.034;2023-02-22T08:30:40;100489.81;;;11.41;67.75
41800;BME280;27468;47.460;19.034;2023-02-22T08:33:10;100503.66;;;11.52;67.15
41800;BME280;27468;47.460;19.034;2023-02-22T08:35:38;100486.81;;;11.56;67.16
41800;BME280;27468;47.460;19.034;2023-02-22T08:38:06;100497.94;;;11.71;66.99
41800;BME280;27468;47.460;19.034;2023-02-22T08:40:36;100474.16;;;11.71;66.60
41800;BME280;27468;47.460;19.034;2023-02-22T08:43:02;100411.13;;;11.55;66.50
41800;BME280;27468;47.460;19.034;2023-02-22T08:45:28;100450.69;;;11.97;65.81
41800;BME280;27468;47.460;19.034;2023-02-22T08:47:53;100472.75;;;12.30;65.20
41800;BME280;27468;47.460;19.034;2023-02-22T08:50:25;100441.78;;;12.35;64.02
41800;BME280;27468;47.460;19.034;2023-02-22T08:52:52;100489.78;;;12.85;63.28
41800;BME280;27468;47.460;19.034;2023-02-22T08:55:20;100426.75;;;12.70;62.06
41800;BME280;27468;47.460;19.034;2023-02-22T08:57:45;100424.56;;;12.84;61.27
41800;BME280;27468;47.460;19.034;2023-02-22T09:00:11;100465.66;;;13.28;61.08
41800;BME280;27468;47.460;19.034;2023-02-22T09:02:37;100439.28;;;13.25;60.61
41800;BME280;27468;47.460;19.034;2023-02-22T09:05:02;100466.56;;;13.57;59.39
41800;BME280;27468;47.460;19.034;2023-02-22T09:07:31;100463.84;;;13.58;58.70
41800;BME280;27468;47.460;19.034;2023-02-22T09:09:56;100488.50;;;13.88;58.62
41800;BME280;27468;47.460;19.034;2023-02-22T09:12:22;100462.31;;;13.79;58.40
41800;BME280;27468;47.460;19.034;2023-02-22T09:14:47;100468.13;;;13.90;58.09
41800;BME280;27468;47.460;19.034;2023-02-22T09:17:12;100494.25;;;14.02;57.96
41800;BME280;27468;47.460;19.034;2023-02-22T09:19:38;100475.59;;;14.05;57.17
41800;BME280;27468;47.460;19.034;2023-02-22T09:22:03;100457.38;;;13.95;57.25
41800;BME280;27468;47.460;19.034;2023-02-22T09:24:30;100489.50;;;14.12;57.36
41800;BME280;27468;47.460;19.034;2023-02-22T09:26:57;100408.66;;;13.72;57.14
41800;BME280;27468;47.460;19.034;2023-02-22T09:29:25;100502.47;;;14.21;56.81
41800;BME280;27468;47.460;19.034;2023-02-22T09:31:53;100496.03;;;14.02;56.70
41800;BME280;27468;47.460;19.034;2023-02-22T09:34:23;100496.59;;;14.11;56.98
41800;BME280;27468;47.460;19.034;2023-02-22T09:36:55;100484.34;;;14.07;56.60
41800;BME280;27468;47.460;19.034;2023-02-22T09:39:24;100497.41;;;14.13;56.60
41800;BME280;27468;47.460;19.034;2023-02-22T09:42:23;100466.91;;;14.00;56.72
41800;BME280;27468;47.460;19.034;2023-02-22T09:45:00;100426.34;;;13.72;56.91
41800;BME280;27468;47.460;19.034;2023-02-22T09:47:39;100504.66;;;14.08;56.97
41800;BME280;27468;47.460;19.034;2023-02-22T09:50:10;100454.41;;;13.77;57.20
41800;BME280;27468;47.460;19.034;2023-02-22T09:53:02;100458.72;;;13.81;56.89
41800;BME280;27468;47.460;19.034;2023-02-22T09:55:35;100418.78;;;13.60;57.03
41800;BME280;27468;47.460;19.034;2023-02-22T09:58:24;100497.31;;;13.88;57.21
41800;BME280;27468;47.460;19.034;2023-02-22T10:00:56;100489.03;;;13.99;57.15
41800;BME280;27468;47.460;19.034;2023-02-22T10:03:35;100491.59;;;14.02;57.15
41800;BME280;27468;47.460;19.034;2023-02-22T10:06:05;100489.84;;;14.01;57.04
41800;BME280;27468;47.460;19.034;2023-02-22T10:08:35;100471.34;;;14.00;56.85
41800;BME280;27468;47.460;19.034;2023-02-22T10:11:25;100492.16;;;14.12;56.38
41800;BME280;27468;47.460;19.034;2023-02-22T10:14:08;100493.06;;;14.11;56.64
41800;BME280;27468;47.460;19.034;2023-02-22T10:19:28;100486.47;;;14.24;56.37
41800;BME280;27468;47.460;19.034;2023-02-22T10:22:09;100447.00;;;14.15;55.94
41800;BME280;27468;47.460;19.034;2023-02-22T10:24:56;100486.00;;;14.38;55.97
41800;BME280;27468;47.460;19.034;2023-02-22T10:27:45;100433.44;;;14.24;55.67
41800;BME280;27468;47.460;19.034;2023-02-22T10:30:20;100462.88;;;14.43;55.52
41800;BME280;27468;47.460;19.034;2023-02-22T10:32:53;100428.72;;;14.32;55.00
41800;BME280;27468;47.460;19.034;2023-02-22T10:35:28;100467.56;;;14.60;54.58
41800;BME280;27468;47.460;19.034;2023-02-22T10:38:01;100477.81;;;14.70;54.50
41800;BME280;27468;47.460;19.034;2023-02-22T10:40:31;100422.09;;;14.45;54.55
41800;BME280;27468;47.460;19.034;2023-02-22T10:42:59;100460.22;;;14.68;54.20
41800;BME280;27468;47.460;19.034;2023-02-22T10:45:28;100446.34;;;14.60;54.21
41800;BME280;27468;47.460;19.034;2023-02-22T10:47:58;100481.34;;;14.71;54.55
41800;BME280;27468;47.460;19.034;2023-02-22T10:50:25;100454.47;;;14.55;54.43
41800;BME280;27468;47.460;19.034;2023-02-22T10:52:53;100397.81;;;14.31;54.57
41800;BME280;27468;47.460;19.034;2023-02-22T10:55:19;100441.19;;;14.55;54.46
41800;BME280;27468;47.460;19.034;2023-02-22T10:57:47;100459.56;;;14.61;54.83
41800;BME280;27468;47.460;19.034;2023-02-22T11:00:21;100452.69;;;14.56;54.33
41800;BME280;27468;47.460;19.034;2023-02-22T11:02:53;100455.19;;;14.60;54.41
41800;BME280;27468;47.460;19.034;2023-02-22T11:10:40;100447.16;;;14.62;54.62
41800;BME280;27468;47.460;19.034;2023-02-22T11:15:59;100417.88;;;14.65;54.38
41800;BME280;27468;47.460;19.034;2023-02-22T11:18:28;100437.97;;;14.72;54.29
41800;BME280;27468;47.460;19.034;2023-02-22T11:21:06;100404.59;;;14.65;54.61
41800;BME280;27468;47.460;19.034;2023-02-22T11:23:36;100412.59;;;14.88;54.57
41800;BME280;27468;47.460;19.034;2023-02-22T11:28:33;100437.63;;;15.04;53.43
41800;BME280;27468;47.460;19.034;2023-02-22T11:31:15;100376.22;;;14.67;53.29
41800;BME280;27468;47.460;19.034;2023-02-22T11:33:48;100436.47;;;15.11;53.46
41800;BME280;27468;47.460;19.034;2023-02-22T11:38:56;100436.03;;;15.24;53.33
41800;BME280;27468;47.460;19.034;2023-02-22T11:41:31;100423.13;;;15.13;52.81
41800;BME280;27468;47.460;19.034;2023-02-22T11:44:22;100434.47;;;15.18;53.13
41800;BME280;27468;47.460;19.034;2023-02-22T11:46:48;100387.78;;;14.89;53.12
41800;BME280;27468;47.460;19.034;2023-02-22T11:49:15;100422.81;;;14.99;53.35
41800;BME280;27468;47.460;19.034;2023-02-22T11:51:52;100428.56;;;15.10;53.20
41800;BME280;27468;47.460;19.034;2023-02-22T11:57:48;100425.91;;;15.10;53.42
41800;BME280;27468;47.460;19.034;2023-02-22T12:00:43;100381.53;;;14.67;53.27
41800;BME280;27468;47.460;19.034;2023-02-22T12:06:29;100418.06;;;14.83;53.90
41800;BME280;27468;47.460;19.034;2023-02-22T12:20:30;100379.34;;;14.78;53.89
41800;BME280;27468;47.460;19.034;2023-02-22T12:23:06;100422.56;;;15.05;53.44
41800;BME280;27468;47.460;19.034;2023-02-22T12:25:56;100404.25;;;14.99;53.25
41800;BME280;27468;47.460;19.034;2023-02-22T12:28:29;100404.78;;;15.07;53.53
41800;BME280;27468;47.460;19.034;2023-02-22T12:31:13;100379.00;;;14.87;53.16
41800;BME280;27468;47.460;19.034;2023-02-22T12:34:12;100406.78;;;15.02;53.18
41800;BME280;27468;47.460;19.034;2023-02-22T12:36:42;100319.50;;;14.46;53.65
41800;BME280;27468;47.460;19.034;2023-02-22T12:42:00;100334.03;;;14.59;53.97
41800;BME280;27468;47.460;19.034;2023-02-22T12:44:34;100365.59;;;14.67;53.91
41800;BME280;27468;47.460;19.034;2023-02-22T12:47:01;100387.47;;;14.73;54.01
41800;BME280;27468;47.460;19.034;2023-02-22T12:49:38;100397.69;;;14.84;54.17
41800;BME280;27468;47.460;19.034;2023-02-22T12:57:30;100353.97;;;14.46;54.59
41800;BME280;27468;47.460;19.034;2023-02-22T13:00:02;100384.72;;;14.76;54.79
41800;BME280;27468;47.460;19.034;2023-02-22T13:02:39;100379.28;;;14.79;54.91
41800;BME280;27468;47.460;19.034;2023-02-22T13:05:15;100345.53;;;14.60;54.69
41800;BME280;27468;47.460;19.034;2023-02-22T13:10:31;100381.38;;;14.95;54.51
41800;BME280;27468;47.460;19.034;2023-02-22T13:18:52;100376.13;;;14.93;54.23
41800;BME280;27468;47.460;19.034;2023-02-22T13:21:35;100382.38;;;14.92;54.22
41800;BME280;27468;47.460;19.034;2023-02-22T13:27:12;100377.63;;;15.00;54.41
41800;BME280;27468;47.460;19.034;2023-02-22T13:29:43;100365.91;;;14.82;54.69
41800;BME280;27468;47.460;19.034;2023-02-22T13:32:40;100381.56;;;14.90;54.35
41800;BME280;27468;47.460;19.034;2023-02-22T13:46:25;100348.31;;;14.80;54.31
41800;BME280;27468;47.460;19.034;2023-02-22T13:51:59;100384.53;;;15.04;54.10
41800;BME280;27468;47.460;19.034;2023-02-22T13:56:53;100379.16;;;15.06;54.34
41800;BME280;27468;47.460;19.034;2023-02-22T13:59:30;100365.56;;;14.92;54.75
41800;BME280;27468;47.460;19.034;2023-02-22T14:01:57;100316.16;;;14.64;54.82
41800;BME280;27468;47.460;19.034;2023-02-22T14:06:53;100359.50;;;14.88;55.00
41800;BME280;27468;47.460;19.034;2023-02-22T14:12:34;100356.22;;;14.81;54.76
41800;BME280;27468;47.460;19.034;2023-02-22T14:17:58;100371.13;;;14.61;55.87
41800;BME280;27468;47.460;19.034;2023-02-22T14:20:35;100375.34;;;14.66;55.77
41800;BME280;27468;47.460;19.034;2023-02-22T14:23:27;100376.28;;;14.65;56.21
41800;BME280;27468;47.460;19.034;2023-02-22T14:25:54;100377.41;;;14.58;56.45
41800;BME280;27468;47.460;19.034;2023-02-22T14:28:39;100359.94;;;14.52;56.66
41800;BME280;27468;47.460;19.034;2023-02-22T14:31:12;100379.16;;;14.59;56.76
41800;BME280;27468;47.460;19.034;2023-02-22T14:36:46;100350.47;;;14.45;56.95
41800;BME280;27468;47.460;19.034;2023-02-22T14:39:34;100374.53;;;14.64;56.89
41800;BME280;27468;47.460;19.034;2023-02-22T14:44:38;100367.66;;;14.59;57.05
41800;BME280;27468;47.460;19.034;2023-02-22T14:47:13;100346.63;;;14.54;56.76
41800;BME280;27468;47.460;19.034;2023-02-22T14:49:43;100342.66;;;14.42;57.05
41800;BME280;27468;47.460;19.034;2023-02-22T14:52:31;100363.41;;;14.54;57.18
41800;BME280;27468;47.460;19.034;2023-02-22T14:55:19;100365.28;;;14.51;57.47
41800;BME280;27468;47.460;19.034;2023-02-22T14:58:09;100366.59;;;14.39;57.75
41800;BME280;27468;47.460;19.034;2023-02-22T15:00:43;100319.84;;;14.12;57.96
41800;BME280;27468;47.460;19.034;2023-02-22T15:03:24;100363.13;;;14.37;58.04